Time;durP1;ratioP1;P1;durP2;ratioP2;P2;SDS_P1;SDS_P2;PMS_P1;PMS_P2;Temp;Humidity;BMP_temperature;BMP_pressure;BME280_temperature;BME280_humidity;BME280_pressure;Samples;Min_cycle;Max_cycle;Signal;HPM_P1;HPM_P2
2022/03/26 00:01:20;;;;;;;6.63;3.53;;;21.90;42.20;;;;;;5062223;27;90263;-73
2022/03/26 00:03:49;;;;;;;4.43;3.30;;;21.90;42.20;;;;;;5077370;27;89004;-73
2022/03/26 00:06:17;;;;;;;8.00;4.10;;;21.90;42.10;;;;;;5070155;27;88580;-73
2022/03/26 00:08:48;;;;;;;4.97;3.67;;;21.90;42.10;;;;;;5061180;27;92901;-73
2022/03/26 00:11:17;;;;;;;6.40;3.93;;;21.90;42.20;;;;;;5060017;27;88973;-73
2022/03/26 00:13:48;;;;;;;6.60;4.07;;;21.90;42.10;;;;;;5068964;27;91563;-74
2022/03/26 00:16:15;;;;;;;4.77;3.57;;;21.90;42.10;;;;;;5062093;27;89413;-73
2022/03/26 00:18:44;;;;;;;8.90;3.90;;;21.90;42.00;;;;;;5060668;27;90081;-73
2022/03/26 00:21:12;;;;;;;4.37;3.30;;;21.90;41.90;;;;;;5074893;27;92287;-73
2022/03/26 00:23:40;;;;;;;5.77;3.47;;;21.90;41.90;;;;;;5072393;27;89377;-74
2022/03/26 00:26:12;;;;;;;6.83;3.33;;;21.90;41.90;;;;;;5070972;27;88677;-73
2022/03/26 00:28:40;;;;;;;6.37;3.57;;;21.90;41.90;;;;;;5065717;27;89711;-73
2022/03/26 00:31:08;;;;;;;6.33;3.57;;;21.90;41.90;;;;;;5058552;27;89111;-73
2022/03/26 00:33:36;;;;;;;4.47;3.23;;;21.80;41.80;;;;;;5071483;27;90890;-73
2022/03/26 00:36:05;;;;;;;6.37;3.40;;;21.80;41.80;;;;;;5067017;27;88763;-73
2022/03/26 00:38:34;;;;;;;5.13;3.30;;;21.80;41.80;;;;;;5071332;27;92477;-73
2022/03/26 00:41:02;;;;;;;5.17;3.60;;;21.80;41.80;;;;;;5063958;27;90080;-73
2022/03/26 00:43:31;;;;;;;4.93;2.97;;;21.80;41.80;;;;;;5060418;27;88742;-73
2022/03/26 00:45:59;;;;;;;4.60;3.30;;;21.80;41.80;;;;;;5060652;27;88659;-73
2022/03/26 00:48:27;;;;;;;6.17;3.40;;;21.80;41.80;;;;;;5062941;27;90056;-74
2022/03/26 00:50:55;;;;;;;4.07;2.97;;;21.80;41.80;;;;;;5068936;27;89060;-73
2022/03/26 00:53:26;;;;;;;3.90;2.97;;;21.70;41.70;;;;;;5078469;27;89886;-73
2022/03/26 00:55:54;;;;;;;5.10;3.43;;;21.70;41.80;;;;;;5079477;27;88513;-72
2022/03/26 00:58:22;;;;;;;3.80;3.07;;;21.70;41.80;;;;;;5079183;27;91148;-72
2022/03/26 01:00:52;;;;;;;5.87;3.17;;;21.70;41.70;;;;;;5078111;27;88345;-73
2022/03/26 01:03:20;;;;;;;5.67;3.10;;;21.70;41.70;;;;;;5068336;27;88870;-73
2022/03/26 01:05:48;;;;;;;4.47;3.17;;;21.70;41.70;;;;;;5062381;27;88498;-73
2022/03/26 01:08:16;;;;;;;4.53;3.03;;;21.70;41.70;;;;;;5059028;27;90167;-73
2022/03/26 01:10:45;;;;;;;3.90;3.00;;;21.70;41.70;;;;;;5070349;27;93114;-73
2022/03/26 01:13:13;;;;;;;5.30;3.70;;;21.70;41.70;;;;;;5077412;27;89343;-73
2022/03/26 01:15:41;;;;;;;5.47;3.00;;;21.70;41.70;;;;;;5062289;27;88598;-72
2022/03/26 01:18:10;;;;;;;4.33;3.10;;;21.70;41.70;;;;;;5072941;27;90350;-71
2022/03/26 01:20:39;;;;;;;4.50;2.67;;;21.70;41.70;;;;;;5073718;27;90176;-72
2022/03/26 01:23:06;;;;;;;3.60;2.63;;;21.70;41.70;;;;;;5069760;27;89820;-71
2022/03/26 01:25:34;;;;;;;3.83;2.97;;;21.70;42.40;;;;;;5082778;27;88582;-70
2022/03/26 01:28:03;;;;;;;4.90;3.27;;;21.70;41.80;;;;;;5080908;27;90679;-71
2022/03/26 01:30:31;;;;;;;4.50;3.20;;;21.70;41.80;;;;;;5082549;27;89805;-70
2022/03/26 01:32:59;;;;;;;4.67;2.90;;;21.70;41.80;;;;;;5081238;27;90583;-71
2022/03/26 01:35:28;;;;;;;5.50;3.10;;;21.70;41.90;;;;;;5064700;27;88586;-70
2022/03/26 01:38:01;;;;;;;4.17;2.80;;;21.70;41.90;;;;;;5073362;27;89775;-70
2022/03/26 01:40:29;;;;;;;4.93;3.23;;;21.70;41.90;;;;;;5082383;27;89182;-70
2022/03/26 01:42:57;;;;;;;3.90;2.80;;;21.80;42.10;;;;;;5073923;27;88835;-71
2022/03/26 01:45:25;;;;;;;4.50;3.20;;;21.80;42.10;;;;;;5067847;27;88460;-71
2022/03/26 01:47:55;;;;;;;4.20;2.90;;;21.80;42.10;;;;;;5073342;27;88443;-70
2022/03/26 01:50:23;;;;;;;5.37;3.23;;;21.80;42.20;;;;;;5063015;27;88883;-71
2022/03/26 01:52:52;;;;;;;4.40;3.00;;;21.80;42.20;;;;;;5072194;27;88583;-72
2022/03/26 01:55:21;;;;;;;8.10;3.07;;;21.80;42.20;;;;;;5071622;27;88565;-73
2022/03/26 01:57:51;;;;;;;3.17;2.37;;;21.80;42.20;;;;;;5065798;27;91438;-73
2022/03/26 02:00:19;;;;;;;5.77;3.13;;;21.80;42.10;;;;;;5061029;27;89772;-73
2022/03/26 02:02:47;;;;;;;4.50;2.90;;;21.80;42.20;;;;;;5076149;27;88502;-73
2022/03/26 02:05:16;;;;;;;3.10;2.80;;;21.80;42.80;;;;;;5073147;27;88503;-73
2022/03/26 02:07:45;;;;;;;4.10;2.83;;;21.70;42.10;;;;;;5033681;28;94268;-73
2022/03/26 02:10:15;;;;;;;6.30;3.20;;;21.30;41.80;;;;;;5040740;27;90308;-72
2022/03/26 02:12:45;;;;;;;3.10;2.80;;;21.70;42.00;;;;;;5036682;28;88654;-73
2022/03/26 02:15:13;;;;;;;4.27;2.47;;;21.70;42.10;;;;;;5041131;27;88326;-73
2022/03/26 02:17:42;;;;;;;4.63;3.20;;;21.60;42.00;;;;;;5027692;28;91907;-73
2022/03/26 02:20:13;;;;;;;4.53;2.53;;;21.60;42.00;;;;;;5038185;28;92040;-73
2022/03/26 02:22:41;;;;;;;4.33;2.60;;;21.60;42.00;;;;;;5024835;28;88593;-73
2022/03/26 02:25:10;;;;;;;4.33;2.83;;;21.60;42.00;;;;;;5023167;28;88358;-73
2022/03/26 02:27:38;;;;;;;3.40;2.30;;;21.60;42.00;;;;;;5020274;28;89458;-73
2022/03/26 02:30:06;;;;;;;3.87;2.90;;;21.60;42.00;;;;;;5019323;28;91818;-73
2022/03/26 02:32:34;;;;;;;3.50;2.57;;;21.50;41.90;;;;;;5021359;28;89143;-73
2022/03/26 02:35:03;;;;;;;4.17;2.40;;;21.50;41.90;;;;;;5033617;27;88724;-73
2022/03/26 02:37:32;;;;;;;4.40;2.93;;;21.50;41.90;;;;;;5021397;28;92453;-73
2022/03/26 02:40:00;;;;;;;4.53;3.47;;;21.50;41.90;;;;;;5021900;28;89099;-73
2022/03/26 02:42:28;;;;;;;3.30;2.80;;;21.50;41.90;;;;;;5021101;28;89218;-72
2022/03/26 02:44:56;;;;;;;7.67;3.63;;;21.50;41.90;;;;;;5025817;28;88552;-72
2022/03/26 02:47:24;;;;;;;5.20;2.77;;;21.50;41.80;;;;;;5038969;28;92913;-72
2022/03/26 02:49:52;;;;;;;4.27;2.90;;;21.50;41.80;;;;;;5038525;28;89662;-72
2022/03/26 02:52:22;;;;;;;5.03;3.00;;;21.40;41.70;;;;;;5031112;28;88494;-72
2022/03/26 02:54:54;;;;;;;5.13;2.67;;;21.50;41.80;;;;;;5022351;28;88489;-72
2022/03/26 02:57:22;;;;;;;6.53;3.37;;;21.50;41.80;;;;;;5020250;28;90686;-72
2022/03/26 02:59:50;;;;;;;4.50;3.00;;;21.50;41.70;;;;;;5020169;28;89213;-72
2022/03/26 03:02:18;;;;;;;4.27;3.33;;;21.50;41.70;;;;;;5021687;28;91955;-72
2022/03/26 03:04:47;;;;;;;5.23;2.37;;;21.40;41.60;;;;;;5030475;28;88705;-73
2022/03/26 03:07:15;;;;;;;10.33;3.53;;;21.40;41.50;;;;;;5053579;27;89983;-73
2022/03/26 03:09:43;;;;;;;4.30;2.73;;;21.40;41.50;;;;;;5079034;27;89967;-73
2022/03/26 03:12:13;;;;;;;4.40;2.83;;;21.40;41.50;;;;;;5069913;27;90719;-73
2022/03/26 03:14:41;;;;;;;4.13;2.80;;;21.40;41.50;;;;;;5062199;27;89270;-73
2022/03/26 03:17:09;;;;;;;5.13;3.20;;;21.40;41.50;;;;;;5063069;27;89379;-73
2022/03/26 03:19:38;;;;;;;6.03;3.03;;;21.40;41.50;;;;;;5061712;27;88818;-73
2022/03/26 03:22:06;;;;;;;3.93;3.17;;;21.40;41.50;;;;;;5060739;27;88688;-73
2022/03/26 03:24:34;;;;;;;5.10;3.00;;;21.40;41.50;;;;;;5072956;27;88681;-72
2022/03/26 03:27:02;;;;;;;5.03;3.30;;;21.40;41.50;;;;;;5061170;27;89431;-73
2022/03/26 03:29:32;;;;;;;4.73;3.00;;;21.40;41.50;;;;;;5061601;27;88997;-73
2022/03/26 03:32:00;;;;;;;5.00;2.67;;;21.30;41.40;;;;;;5059831;27;88537;-73
2022/03/26 03:34:28;;;;;;;4.87;3.07;;;21.30;41.40;;;;;;5060814;27;88637;-73
2022/03/26 03:36:56;;;;;;;6.37;3.10;;;21.30;41.40;;;;;;5060024;27;93154;-72
2022/03/26 03:39:24;;;;;;;5.70;3.50;;;21.30;41.40;;;;;;5061262;27;90023;-72
2022/03/26 03:41:52;;;;;;;3.80;3.07;;;21.30;41.40;;;;;;5073437;27;88532;-72
2022/03/26 03:44:20;;;;;;;5.03;3.40;;;21.30;41.40;;;;;;5071173;27;89899;-73
2022/03/26 03:46:50;;;;;;;4.00;3.00;;;21.30;41.30;;;;;;5069792;27;89514;-72
2022/03/26 03:49:18;;;;;;;4.70;2.73;;;21.30;41.30;;;;;;5079728;27;92282;-73
2022/03/26 03:51:47;;;;;;;6.20;2.90;;;21.30;41.40;;;;;;5069920;27;89065;-73
2022/03/26 03:54:15;;;;;;;7.13;3.20;;;21.20;41.20;;;;;;5061536;27;88398;-73
2022/03/26 03:56:43;;;;;;;6.80;2.90;;;21.20;41.30;;;;;;5063737;27;92655;-73
2022/03/26 03:59:12;;;;;;;4.40;3.17;;;21.20;41.20;;;;;;5070046;27;89313;-73
2022/03/26 04:01:40;;;;;;;7.47;2.93;;;21.20;41.20;;;;;;5063467;27;88467;-73
2022/03/26 04:04:10;;;;;;;4.33;2.77;;;21.20;41.20;;;;;;5079646;27;88480;-73
2022/03/26 04:06:38;;;;;;;5.17;3.53;;;21.20;41.20;;;;;;5075593;27;89554;-73
2022/03/26 04:09:06;;;;;;;5.27;3.33;;;21.20;41.90;;;;;;5071519;27;89897;-73
2022/03/26 04:11:34;;;;;;;5.07;3.23;;;21.20;41.20;;;;;;5061641;27;89578;-72
2022/03/26 04:14:02;;;;;;;5.03;3.20;;;21.20;41.20;;;;;;5060100;27;88380;-73
2022/03/26 04:16:30;;;;;;;5.33;3.00;;;21.20;41.10;;;;;;5060422;27;89529;-73
2022/03/26 04:18:59;;;;;;;4.73;3.17;;;21.20;41.10;;;;;;5059613;27;89340;-73
2022/03/26 04:21:28;;;;;;;7.67;3.53;;;21.20;41.10;;;;;;5059126;27;88381;-73
2022/03/26 04:23:56;;;;;;;6.37;3.43;;;21.20;41.10;;;;;;5059494;27;88637;-72
2022/03/26 04:26:24;;;;;;;2.73;2.53;;;21.20;41.10;;;;;;5072139;27;89370;-73
2022/03/26 04:28:52;;;;;;;4.60;3.40;;;21.20;41.10;;;;;;5076380;27;90767;-72
2022/03/26 04:31:21;;;;;;;6.67;3.50;;;21.10;41.00;;;;;;5077590;27;88575;-72
2022/03/26 04:33:51;;;;;;;5.70;3.17;;;21.10;41.00;;;;;;5070972;27;88458;-72
2022/03/26 04:36:20;;;;;;;4.37;2.90;;;21.10;41.00;;;;;;5059482;27;89486;-72
2022/03/26 04:38:49;;;;;;;4.43;2.77;;;21.10;41.00;;;;;;5059368;27;90525;-72
2022/03/26 04:41:18;;;;;;;5.53;3.13;;;21.10;41.00;;;;;;5078787;27;92178;-72
2022/03/26 04:43:47;;;;;;;4.00;2.63;;;21.10;41.00;;;;;;5076746;27;88542;-73
2022/03/26 04:46:15;;;;;;;4.27;2.87;;;21.10;41.00;;;;;;5067655;27;89713;-73
2022/03/26 04:48:45;;;;;;;5.37;3.10;;;21.10;41.00;;;;;;5059480;27;90121;-73
2022/03/26 04:51:13;;;;;;;5.10;3.37;;;21.10;41.00;;;;;;5066509;27;89333;-73
2022/03/26 04:53:41;;;;;;;5.53;3.63;;;21.10;41.00;;;;;;5080722;27;88584;-73
2022/03/26 04:56:11;;;;;;;6.77;3.53;;;21.00;40.80;;;;;;5074431;27;90142;-72
2022/03/26 04:58:39;;;;;;;6.40;3.60;;;21.00;40.90;;;;;;5078146;27;90576;-73
2022/03/26 05:01:07;;;;;;;5.13;3.53;;;21.00;40.80;;;;;;5063536;27;91042;-73
2022/03/26 05:03:35;;;;;;;4.27;3.67;;;21.00;40.80;;;;;;5070814;27;88595;-73
2022/03/26 05:06:03;;;;;;;6.13;3.00;;;21.00;40.80;;;;;;5081503;27;93721;-72
2022/03/26 05:08:32;;;;;;;6.23;3.87;;;21.00;40.90;;;;;;5082239;27;89456;-73
2022/03/26 05:11:00;;;;;;;4.57;3.33;;;21.00;40.90;;;;;;5078820;27;88576;-72
2022/03/26 05:13:29;;;;;;;4.90;3.67;;;21.00;40.90;;;;;;5082907;27;88520;-73
2022/03/26 05:15:57;;;;;;;4.83;3.20;;;21.00;40.90;;;;;;5071863;27;89055;-72
2022/03/26 05:18:26;;;;;;;6.33;4.10;;;21.00;40.90;;;;;;5062370;27;89391;-72
2022/03/26 05:20:56;;;;;;;4.60;3.10;;;21.00;40.90;;;;;;5062423;27;88447;-72
2022/03/26 05:23:25;;;;;;;7.63;3.57;;;20.90;40.80;;;;;;5064085;27;88570;-72
2022/03/26 05:25:56;;;;;;;3.93;3.20;;;20.90;40.80;;;;;;5082170;27;89436;-72
2022/03/26 05:28:24;;;;;;;6.37;4.03;;;20.90;40.80;;;;;;5080383;27;90093;-73
2022/03/26 05:30:55;;;;;;;5.90;3.53;;;20.90;40.80;;;;;;5081031;27;89844;-72
2022/03/26 05:33:23;;;;;;;5.93;3.50;;;20.90;40.80;;;;;;5062255;27;88428;-73
2022/03/26 05:35:52;;;;;;;7.03;3.57;;;20.90;40.80;;;;;;5077121;27;89303;-73
2022/03/26 05:38:20;;;;;;;6.57;4.07;;;20.90;40.80;;;;;;5063471;27;88606;-72
2022/03/26 05:40:49;;;;;;;4.33;3.40;;;20.90;40.80;;;;;;5074579;27;88277;-73
2022/03/26 05:43:17;;;;;;;8.33;3.93;;;20.90;40.80;;;;;;5080937;27;88657;-72
2022/03/26 05:45:45;;;;;;;6.23;3.97;;;20.90;40.80;;;;;;5080607;27;89677;-72
2022/03/26 05:48:15;;;;;;;8.97;3.83;;;20.90;40.70;;;;;;5069154;27;90169;-72
2022/03/26 05:50:44;;;;;;;6.37;3.57;;;20.90;40.70;;;;;;5080447;27;88910;-72
2022/03/26 05:53:12;;;;;;;7.20;4.47;;;20.90;40.80;;;;;;5068910;27;88608;-72
2022/03/26 05:55:40;;;;;;;6.33;3.83;;;20.90;40.70;;;;;;5072023;27;89381;-72
2022/03/26 05:58:10;;;;;;;6.83;3.63;;;20.90;40.70;;;;;;5062268;27;93059;-72
2022/03/26 06:00:38;;;;;;;6.37;4.10;;;20.90;40.70;;;;;;5066478;27;88974;-72
2022/03/26 06:03:06;;;;;;;7.40;4.43;;;20.90;40.70;;;;;;5081791;27;88505;-72
2022/03/26 06:05:38;;;;;;;11.57;4.93;;;20.90;40.70;;;;;;5080663;27;90314;-72
2022/03/26 06:08:08;;;;;;;5.93;3.70;;;20.90;40.60;;;;;;5065142;27;93195;-72
2022/03/26 06:10:36;;;;;;;8.53;4.40;;;20.90;40.60;;;;;;5061528;27;88584;-72
2022/03/26 06:13:04;;;;;;;6.97;3.57;;;20.90;40.60;;;;;;5079923;27;88711;-72
2022/03/26 06:15:34;;;;;;;6.03;4.13;;;21.00;40.60;;;;;;5075453;27;93205;-73
2022/03/26 06:18:11;;;;;;;7.33;4.30;;;20.90;40.60;;;;;;5061099;27;89052;-72
2022/03/26 06:20:42;;;;;;;8.57;5.43;;;21.00;40.60;;;;;;5070620;27;88978;-73
2022/03/26 06:23:10;;;;;;;7.67;4.10;;;21.00;40.60;;;;;;5062694;27;88473;-73
2022/03/26 06:25:38;;;;;;;7.07;4.57;;;21.00;40.50;;;;;;5062485;27;90662;-73
2022/03/26 06:28:06;;;;;;;6.50;4.60;;;21.00;40.60;;;;;;5062779;27;92936;-73
2022/03/26 06:30:34;;;;;;;9.47;4.73;;;21.00;40.60;;;;;;5066206;27;92027;-73
2022/03/26 06:33:02;;;;;;;7.30;4.73;;;21.00;40.70;;;;;;5060739;27;88916;-73
2022/03/26 06:35:30;;;;;;;8.93;4.77;;;21.10;40.80;;;;;;5061492;27;89712;-73
2022/03/26 06:38:05;;;;;;;7.73;4.73;;;21.10;40.90;;;;;;5065995;27;90633;-72
2022/03/26 06:40:33;;;;;;;6.53;4.73;;;21.10;41.60;;;;;;5070000;27;89816;-73
2022/03/26 06:43:01;;;;;;;8.13;4.77;;;21.20;41.00;;;;;;5073488;27;88727;-73
2022/03/26 06:45:29;;;;;;;8.53;4.90;;;21.20;41.10;;;;;;5067698;27;90855;-73
2022/03/26 06:47:57;;;;;;;9.53;5.17;;;21.20;41.10;;;;;;5071295;27;92694;-73
2022/03/26 06:50:25;;;;;;;7.00;4.87;;;21.20;41.10;;;;;;5081069;27;88804;-71
2022/03/26 06:52:54;;;;;;;8.03;4.80;;;21.30;41.20;;;;;;5088137;27;88457;-72
2022/03/26 06:55:24;;;;;;;8.23;5.53;;;21.30;41.20;;;;;;5080847;27;90683;-72
2022/03/26 06:57:54;;;;;;;5.97;4.27;;;21.30;41.20;;;;;;5084397;27;89511;-71
2022/03/26 07:00:22;;;;;;;8.63;5.13;;;21.30;41.30;;;;;;5066550;27;88408;-71
2022/03/26 07:02:56;;;;;;;8.30;4.83;;;21.30;41.40;;;;;;5067957;27;88601;-72
2022/03/26 07:05:24;;;;;;;7.47;4.87;;;21.30;41.40;;;;;;5078015;27;88507;-71
2022/03/26 07:07:52;;;;;;;7.27;4.57;;;21.30;41.50;;;;;;5086847;27;90140;-71
2022/03/26 07:10:20;;;;;;;8.60;5.27;;;21.30;41.50;;;;;;5084933;27;90157;-71
2022/03/26 07:12:50;;;;;;;8.37;4.50;;;21.30;41.50;;;;;;5067926;27;88552;-72
2022/03/26 07:15:18;;;;;;;9.23;5.03;;;21.30;42.20;;;;;;5077969;27;88323;-71
2022/03/26 07:17:46;;;;;;;7.30;4.67;;;21.30;41.60;;;;;;5063977;27;91327;-71
2022/03/26 07:20:14;;;;;;;7.40;5.20;;;21.40;41.70;;;;;;5064221;27;89068;-71
2022/03/26 07:22:43;;;;;;;8.37;5.23;;;21.30;41.70;;;;;;5063889;27;88616;-71
2022/03/26 07:25:11;;;;;;;7.67;5.07;;;21.30;41.70;;;;;;5081426;27;90795;-70
2022/03/26 07:27:39;;;;;;;9.60;5.10;;;21.30;41.80;;;;;;5081115;27;90050;-70
2022/03/26 07:30:09;;;;;;;7.80;4.80;;;21.30;41.80;;;;;;5065899;27;88986;-71
2022/03/26 07:32:37;;;;;;;9.23;5.00;;;21.30;41.80;;;;;;5061579;27;88403;-71
2022/03/26 07:35:06;;;;;;;8.70;4.63;;;21.30;41.80;;;;;;5062246;27;93124;-71
2022/03/26 07:37:34;;;;;;;9.33;5.33;;;21.30;41.90;;;;;;5062353;27;90134;-71
2022/03/26 07:40:03;;;;;;;7.43;4.67;;;21.30;41.90;;;;;;5075877;27;88793;-70
2022/03/26 07:42:31;;;;;;;11.57;5.70;;;21.30;42.00;;;;;;5077942;27;88635;-71
2022/03/26 07:44:59;;;;;;;7.20;5.03;;;21.30;42.00;;;;;;5078351;27;90184;-70
2022/03/26 07:47:28;;;;;;;9.73;4.77;;;21.30;42.00;;;;;;5060548;27;93693;-70
2022/03/26 07:49:56;;;;;;;7.53;5.10;;;21.30;42.00;;;;;;5075418;27;89174;-71
2022/03/26 07:52:24;;;;;;;7.03;4.63;;;21.30;42.00;;;;;;5081158;27;89008;-71
2022/03/26 07:54:52;;;;;;;8.30;4.27;;;21.30;42.10;;;;;;5080878;27;90654;-71
2022/03/26 07:57:20;;;;;;;8.70;4.33;;;21.30;42.10;;;;;;5080764;27;88520;-71
2022/03/26 07:59:49;;;;;;;12.13;5.23;;;21.30;42.10;;;;;;5062835;27;89694;-72
2022/03/26 08:02:17;;;;;;;8.07;4.57;;;21.30;42.10;;;;;;5082084;27;88615;-73
2022/03/26 08:04:47;;;;;;;10.77;4.87;;;21.30;42.20;;;;;;5080262;27;90954;-71
2022/03/26 08:07:15;;;;;;;9.33;4.57;;;21.30;42.30;;;;;;5081172;27;90055;-73
2022/03/26 08:09:43;;;;;;;6.67;4.63;;;21.40;42.40;;;;;;5063977;27;88717;-71
2022/03/26 08:12:11;;;;;;;9.03;4.93;;;21.40;42.50;;;;;;5081910;27;88694;-72
2022/03/26 08:14:39;;;;;;;8.57;4.57;;;21.40;42.50;;;;;;5071058;27;90725;-71
2022/03/26 08:17:07;;;;;;;7.07;4.60;;;21.40;42.50;;;;;;5084251;27;90478;-71
2022/03/26 08:19:36;;;;;;;7.73;4.67;;;21.40;42.50;;;;;;5075135;27;91249;-72
2022/03/26 08:22:06;;;;;;;10.07;4.90;;;21.40;42.50;;;;;;5060987;27;88490;-72
2022/03/26 08:24:34;;;;;;;8.10;4.80;;;21.40;42.50;;;;;;5076339;27;89483;-71
2022/03/26 08:27:03;;;;;;;8.53;5.10;;;21.40;42.50;;;;;;5078316;27;93219;-72
2022/03/26 08:29:31;;;;;;;8.67;4.37;;;21.40;42.50;;;;;;5059164;27;89374;-72
2022/03/26 08:32:02;;;;;;;9.07;5.50;;;21.40;42.50;;;;;;5058727;27;88590;-71
2022/03/26 08:34:30;;;;;;;9.63;5.20;;;21.40;42.60;;;;;;5075175;27;90965;-72
2022/03/26 08:36:58;;;;;;;7.43;4.00;;;21.40;42.60;;;;;;5059588;27;92626;-72
2022/03/26 08:39:28;;;;;;;7.77;4.37;;;21.40;42.60;;;;;;5041735;27;89228;-72
2022/03/26 08:41:56;;;;;;;7.50;4.60;;;21.40;42.70;;;;;;5073446;27;88616;-72
2022/03/26 08:44:24;;;;;;;7.27;4.00;;;21.40;42.70;;;;;;5059640;27;92879;-71
2022/03/26 08:46:53;;;;;;;6.10;3.83;;;21.40;42.70;;;;;;5059110;27;90224;-71
2022/03/26 08:49:21;;;;;;;8.10;4.63;;;21.40;42.70;;;;;;5059210;27;89793;-72
2022/03/26 08:51:49;;;;;;;9.33;5.07;;;21.40;42.70;;;;;;5075342;27;89900;-71
2022/03/26 08:54:17;;;;;;;8.83;5.57;;;21.40;42.70;;;;;;5078398;27;90723;-71
2022/03/26 08:56:46;;;;;;;6.13;3.63;;;21.40;42.70;;;;;;5078635;27;89112;-71
2022/03/26 08:59:15;;;;;;;8.63;4.10;;;21.40;42.70;;;;;;5062213;27;88807;-71
2022/03/26 09:01:42;;;;;;;8.03;4.50;;;21.40;42.70;;;;;;5073999;27;88476;-72
2022/03/26 09:04:12;;;;;;;8.77;5.33;;;21.40;42.70;;;;;;5063151;27;90443;-72
2022/03/26 09:06:41;;;;;;;8.93;4.80;;;21.40;42.70;;;;;;5076739;27;88595;-72
2022/03/26 09:09:09;;;;;;;7.00;4.73;;;21.40;42.70;;;;;;5077784;27;90165;-72
2022/03/26 09:11:37;;;;;;;6.17;4.17;;;21.40;42.70;;;;;;5073072;27;88626;-72
2022/03/26 09:14:07;;;;;;;8.07;4.43;;;21.40;42.70;;;;;;5058748;27;90710;-71
2022/03/26 09:16:35;;;;;;;6.43;4.07;;;21.40;42.60;;;;;;5064403;27;90358;-71
2022/03/26 09:19:03;;;;;;;7.80;4.53;;;21.40;42.60;;;;;;5078663;27;88380;-71
2022/03/26 09:21:31;;;;;;;8.67;5.00;;;21.40;42.60;;;;;;5077642;27;88380;-67
2022/03/26 09:23:59;;;;;;;7.60;3.90;;;21.40;42.60;;;;;;5079610;27;90177;-68
2022/03/26 09:26:28;;;;;;;7.07;4.47;;;21.40;42.60;;;;;;5070797;27;90538;-67
2022/03/26 09:28:56;;;;;;;7.80;4.07;;;21.40;42.60;;;;;;5079440;27;88779;-68
2022/03/26 09:31:25;;;;;;;8.87;4.50;;;21.40;42.60;;;;;;5068657;27;88463;-68
2022/03/26 09:33:56;;;;;;;7.57;4.60;;;21.40;42.60;;;;;;5058568;27;90556;-68
2022/03/26 09:36:24;;;;;;;10.93;5.10;;;21.40;42.60;;;;;;5060113;27;89207;-68
2022/03/26 09:38:52;;;;;;;6.77;4.17;;;21.50;42.70;;;;;;5062145;27;89877;-68
2022/03/26 09:41:22;;;;;;;9.53;4.47;;;21.50;42.70;;;;;;5061857;27;88511;-68
2022/03/26 09:43:50;;;;;;;7.37;4.37;;;21.50;42.70;;;;;;5061333;27;92278;-67
2022/03/26 09:46:18;;;;;;;7.00;3.87;;;21.50;42.70;;;;;;5075424;27;88848;-67
2022/03/26 09:48:48;;;;;;;6.90;4.17;;;21.50;42.70;;;;;;5082035;27;90054;-67
2022/03/26 09:51:16;;;;;;;6.43;3.53;;;21.50;42.70;;;;;;5082135;27;88624;-67
2022/03/26 09:53:44;;;;;;;10.40;4.80;;;21.50;42.70;;;;;;5082195;27;90687;-68
2022/03/26 09:56:13;;;;;;;12.20;4.33;;;21.50;42.70;;;;;;5081504;27;89085;-69
2022/03/26 09:58:40;;;;;;;7.20;4.13;;;21.50;42.80;;;;;;5079902;27;88391;-67
2022/03/26 10:01:09;;;;;;;6.77;4.00;;;21.50;42.80;;;;;;5081705;27;88354;-69
2022/03/26 10:03:39;;;;;;;7.23;4.30;;;21.50;42.80;;;;;;5081974;27;91006;-68
2022/03/26 10:06:14;;;;;;;6.17;4.00;;;21.60;42.90;;;;;;5063238;27;89927;-68
2022/03/26 10:08:42;;;;;;;8.57;4.70;;;21.50;43.50;;;;;;5061596;27;88967;-67
2022/03/26 10:11:18;;;;;;;6.47;4.23;;;21.50;42.80;;;;;;5062004;27;88411;-68
2022/03/26 10:13:48;;;;;;;7.83;4.03;;;21.50;42.80;;;;;;5061729;27;91034;-68
2022/03/26 10:16:17;;;;;;;6.10;3.63;;;21.60;42.90;;;;;;5061802;27;90487;-68
2022/03/26 10:18:46;;;;;;;6.07;3.73;;;21.60;43.00;;;;;;5061667;27;88955;-68
2022/03/26 10:21:16;;;;;;;7.70;3.80;;;21.60;43.00;;;;;;5061730;27;88569;-68
2022/03/26 10:23:44;;;;;;;6.97;3.13;;;21.50;42.90;;;;;;5061901;27;90188;-67
2022/03/26 10:26:13;;;;;;;8.10;3.83;;;21.60;43.00;;;;;;5060404;27;89051;-67
2022/03/26 10:28:42;;;;;;;6.47;3.87;;;21.60;43.00;;;;;;5060491;27;88791;-68
2022/03/26 10:34:09;;;;;;;5.10;3.50;;;21.60;43.00;;;;;;5068710;27;90794;-67
2022/03/26 10:36:40;;;;;;;8.47;3.43;;;21.60;43.10;;;;;;5071993;27;90217;-67
2022/03/26 10:39:14;;;;;;;6.57;3.73;;;21.60;43.10;;;;;;5063864;27;88860;-67
2022/03/26 10:41:42;;;;;;;6.70;3.33;;;21.60;43.10;;;;;;5069166;27;88829;-68
2022/03/26 10:44:11;;;;;;;5.93;3.10;;;21.60;43.80;;;;;;5066392;27;89255;-65
2022/03/26 10:46:47;;;;;;;14.03;3.93;;;21.60;43.20;;;;;;5066773;27;90047;-65
2022/03/26 10:49:25;;;;;;;5.53;3.50;;;21.60;43.10;;;;;;5073767;27;88574;-68
2022/03/26 10:51:54;;;;;;;5.87;3.03;;;21.70;43.20;;;;;;5075606;27;89437;-68
2022/03/26 10:54:28;;;;;;;5.53;4.17;;;21.70;43.20;;;;;;5062833;27;89693;-69
2022/03/26 10:56:57;;;;;;;4.63;3.00;;;21.70;43.20;;;;;;5060722;27;89193;-67
2022/03/26 10:59:25;;;;;;;3.90;2.93;;;21.70;43.20;;;;;;5060923;27;88297;-70
2022/03/26 11:01:54;;;;;;;6.13;2.97;;;21.70;43.20;;;;;;5060968;27;88503;-71
2022/03/26 11:04:26;;;;;;;5.00;2.87;;;21.70;43.20;;;;;;5061022;27;90134;-71
2022/03/26 11:06:55;;;;;;;6.03;2.93;;;21.70;43.20;;;;;;5060474;27;92591;-71
2022/03/26 11:09:24;;;;;;;4.43;3.27;;;21.80;43.20;;;;;;5060551;27;88423;-71
2022/03/26 11:11:52;;;;;;;20.57;3.20;;;21.80;43.20;;;;;;5061115;27;88523;-71
2022/03/26 11:14:26;;;;;;;6.33;3.03;;;21.80;43.20;;;;;;5073497;27;90586;-72
2022/03/26 11:17:08;;;;;;;8.07;2.97;;;21.80;43.20;;;;;;5080798;27;90296;-71
2022/03/26 11:19:42;;;;;;;4.67;3.33;;;21.80;43.20;;;;;;5081572;27;92284;-71
2022/03/26 11:22:42;;;;;;;5.10;3.07;;;21.80;43.10;;;;;;5081504;27;88500;-71
2022/03/26 11:25:38;;;;;;;6.17;2.90;;;21.80;43.20;;;;;;5081255;27;90257;-71
2022/03/26 11:28:37;;;;;;;3.97;3.10;;;21.80;43.10;;;;;;5081161;27;90228;-71
2022/03/26 11:31:09;;;;;;;3.53;2.70;;;21.80;43.00;;;;;;5046641;27;88853;-71
2022/03/26 11:33:38;;;;;;;5.47;3.03;;;21.80;42.90;;;;;;5080180;27;88590;-71
2022/03/26 11:36:07;;;;;;;5.87;3.53;;;21.80;42.90;;;;;;5080567;27;91190;-70
2022/03/26 11:38:36;;;;;;;5.37;3.00;;;21.80;42.90;;;;;;5080246;27;89232;-70
2022/03/26 11:41:06;;;;;;;4.20;2.60;;;21.80;42.80;;;;;;5080179;27;89681;-71
2022/03/26 11:43:56;;;;;;;5.43;3.10;;;21.80;42.70;;;;;;5079834;27;88737;-71
2022/03/26 11:52:16;;;;;;;4.27;2.63;;;21.80;42.60;;;;;;5079769;27;88724;-71
2022/03/26 11:54:45;;;;;;;3.47;2.70;;;21.80;42.60;;;;;;5080839;27;88603;-71
2022/03/26 11:57:17;;;;;;;9.47;3.23;;;21.80;42.50;;;;;;5080528;27;93651;-71
2022/03/26 11:59:46;;;;;;;4.10;2.97;;;21.80;42.50;;;;;;5079525;27;90098;-71
2022/03/26 12:02:24;;;;;;;4.87;3.13;;;21.90;42.60;;;;;;5080332;27;88430;-71
2022/03/26 12:04:55;;;;;;;3.43;2.27;;;21.80;43.10;;;;;;5080615;27;88665;-72
2022/03/26 12:07:23;;;;;;;5.40;2.77;;;21.90;43.10;;;;;;5079519;27;90835;-72
2022/03/26 12:10:20;;;;;;;4.93;2.87;;;21.90;42.40;;;;;;5079631;27;88923;-72
2022/03/26 12:12:52;;;;;;;5.30;3.10;;;21.90;42.40;;;;;;5032574;27;89939;-72
2022/03/26 12:15:41;;;;;;;4.10;3.00;;;21.90;42.30;;;;;;5080231;27;88195;-72
2022/03/26 12:18:11;;;;;;;5.90;3.20;;;21.90;42.30;;;;;;5080055;27;90705;-71
2022/03/26 12:20:41;;;;;;;6.67;3.13;;;21.90;42.20;;;;;;5080225;27;88937;-73
2022/03/26 12:23:11;;;;;;;4.37;3.13;;;22.00;42.20;;;;;;5080377;27;88961;-71
2022/03/26 12:25:47;;;;;;;5.27;3.10;;;22.00;42.20;;;;;;5079922;27;88360;-71
2022/03/26 12:28:16;;;;;;;6.97;3.63;;;22.00;42.20;;;;;;5079786;27;91120;-72
2022/03/26 12:30:45;;;;;;;6.10;3.03;;;22.00;42.10;;;;;;5079143;27;91598;-72
2022/03/26 12:33:14;;;;;;;5.03;2.83;;;22.00;42.10;;;;;;5080155;27;88867;-72
2022/03/26 12:35:44;;;;;;;5.50;3.37;;;22.00;42.10;;;;;;5079875;27;88484;-71
2022/03/26 12:38:12;;;;;;;5.10;3.40;;;22.10;42.10;;;;;;5079935;27;91221;-72
2022/03/26 12:40:42;;;;;;;8.23;4.27;;;22.10;42.10;;;;;;5079725;27;90103;-72
2022/03/26 12:43:11;;;;;;;5.23;3.63;;;22.10;42.00;;;;;;5078767;27;88646;-72
2022/03/26 12:45:39;;;;;;;7.53;3.60;;;22.10;42.00;;;;;;5079941;27;88565;-72
2022/03/26 12:48:11;;;;;;;6.23;3.60;;;22.10;42.00;;;;;;5079765;27;90492;-71
2022/03/26 12:50:40;;;;;;;5.83;3.10;;;22.10;42.00;;;;;;5079340;27;90061;-72
2022/03/26 12:53:09;;;;;;;11.10;4.17;;;22.10;42.00;;;;;;5079409;27;89356;-71
2022/03/26 12:55:37;;;;;;;10.03;3.77;;;22.10;42.00;;;;;;5079580;27;88464;-72
2022/03/26 13:01:03;;;;;;;5.33;3.20;;;22.20;42.00;;;;;;5078896;27;90146;-71
2022/03/26 13:03:31;;;;;;;6.63;3.30;;;22.20;42.10;;;;;;5079165;27;90992;-72
2022/03/26 13:05:59;;;;;;;8.73;4.33;;;22.20;42.00;;;;;;5079162;27;88587;-72
2022/03/26 13:08:27;;;;;;;7.77;3.93;;;22.20;42.00;;;;;;5078910;27;89897;-72